Amsden, Ohio
Current Conditions -  °F | °C
As of 9:53 AM on Sunday 23 Nov 2014 (Local Time) from KFDY Reporting Station
Broken Clouds Broken Clouds  
Wind Chill: 10°   Ceiling: 4100
Heat Index: 10°   Visibility: 10mi
Dew Point:   Wind: 12mph
Humidity: 77%   Direction: 160°SSE
Pressure: 29.94"   Gusts: NA
Location:  41.22°N, 83.33°W
Report Text: KFDY 231453Z AUTO 16010KT 10SM FEW031 BKN041 10/06 A2994 RMK AO2 SLP136 60000 T01000061 58004
Loading
Personal Weather Stations






























Interactive Weather Map New forecast layout! Learn more

10-Day Weather Forecast

Advertisements
Track Severe Weather on mobile